createdAt,value
2019-01-30T00:01:16.874Z,99033.47
2019-01-30T00:03:48.839Z,99026.45
2019-01-30T00:06:20.259Z,99024.34
2019-01-30T00:08:51.247Z,99020.66
2019-01-30T00:11:23.409Z,99013.45
2019-01-30T00:13:55.351Z,99005.58
2019-01-30T00:16:27.556Z,99001.51
2019-01-30T00:18:58.546Z,99005.95
2019-01-30T00:21:30.240Z,99001.98
2019-01-30T00:24:01.857Z,98996.49
2019-01-30T00:26:35.581Z,98990.87
2019-01-30T00:29:07.098Z,98987.37
2019-01-30T00:31:38.706Z,98984.61
2019-01-30T00:34:10.784Z,98986.20
2019-01-30T00:36:43.009Z,98975.27
2019-01-30T00:39:14.602Z,98977.52
2019-01-30T00:41:46.930Z,98976.94
2019-01-30T00:44:18.121Z,98974.60
2019-01-30T00:46:49.375Z,98977.09
2019-01-30T00:49:20.213Z,98971.59
2019-01-30T00:51:53.095Z,98970.55
2019-01-30T00:54:32.101Z,98970.63
2019-01-30T00:57:02.058Z,98958.11
2019-01-30T00:59:35.469Z,98957.70
2019-01-30T01:02:07.237Z,98960.16
2019-01-30T01:04:38.956Z,98947.55
2019-01-30T01:07:11.126Z,98955.21
2019-01-30T01:09:45.544Z,98949.02
2019-01-30T01:12:19.357Z,98957.05
2019-01-30T01:14:50.793Z,98942.78
2019-01-30T01:17:22.469Z,98953.66
2019-01-30T01:19:55.946Z,98941.16
2019-01-30T01:22:27.622Z,98937.91
2019-01-30T01:25:00.332Z,98926.93
2019-01-30T01:27:33.803Z,98930.55
2019-01-30T01:30:04.705Z,98925.00
2019-01-30T01:32:36.723Z,98918.02
2019-01-30T01:35:10.293Z,98912.67
2019-01-30T01:37:42.462Z,98911.22
2019-01-30T01:40:14.919Z,98913.38
2019-01-30T01:42:47.439Z,98917.55
2019-01-30T01:45:19.748Z,98905.46
2019-01-30T01:47:52.803Z,98903.31
2019-01-30T01:50:27.609Z,98896.52
2019-01-30T01:53:03.824Z,98887.04
2019-01-30T01:55:34.853Z,98883.92
2019-01-30T01:58:07.620Z,98880.20
2019-01-30T02:00:40.520Z,98882.63
2019-01-30T02:03:10.835Z,98875.64
2019-01-30T02:05:42.170Z,98863.38
2019-01-30T02:08:13.578Z,98859.73
2019-01-30T02:10:45.148Z,98861.17
2019-01-30T02:13:17.560Z,98849.01
2019-01-30T02:15:48.704Z,98845.34
2019-01-30T02:18:21.701Z,98836.72
2019-01-30T02:20:52.836Z,98839.39
2019-01-30T02:23:24.291Z,98836.43
2019-01-30T02:25:55.543Z,98830.18
2019-01-30T02:28:28.799Z,98822.86
2019-01-30T02:31:00.419Z,98830.07
2019-01-30T02:33:32.029Z,98824.59
2019-01-30T02:36:05.076Z,98807.62
2019-01-30T02:38:37.188Z,98804.78
2019-01-30T02:41:08.589Z,98803.49
2019-01-30T02:43:40.323Z,98801.06
2019-01-30T02:46:12.318Z,98797.88
2019-01-30T02:48:46.132Z,98798.04
2019-01-30T02:51:19.546Z,98794.27
2019-01-30T02:53:51.401Z,98794.89
2019-01-30T02:56:23.625Z,98791.33
2019-01-30T02:58:59.908Z,98790.55
2019-01-30T03:01:32.887Z,98784.81
2019-01-30T03:04:04.613Z,98787.41
2019-01-30T03:06:35.948Z,98781.70
2019-01-30T03:09:09.906Z,98777.94
2019-01-30T03:11:43.598Z,98771.30
2019-01-30T03:14:15.052Z,98776.55
2019-01-30T03:16:47.338Z,98776.84
2019-01-30T03:19:19.369Z,98766.14
2019-01-30T03:21:51.573Z,98773.28
2019-01-30T03:24:23.313Z,98768.56
2019-01-30T03:26:57.393Z,98762.25
2019-01-30T03:29:32.058Z,98762.89
2019-01-30T03:32:05.866Z,98751.69
2019-01-30T03:34:37.027Z,98746.27
2019-01-30T03:37:08.122Z,98746.88
2019-01-30T03:39:42.047Z,98746.61
2019-01-30T03:42:13.806Z,98743.02
2019-01-30T03:44:46.810Z,98740.81
2019-01-30T03:47:20.412Z,98736.83
2019-01-30T03:49:53.877Z,98743.52
2019-01-30T03:52:25.657Z,98743.53
2019-01-30T03:54:57.963Z,98745.66
2019-01-30T03:57:29.217Z,98744.36
2019-01-30T04:00:02.885Z,98741.48
2019-01-30T04:02:35.138Z,98736.14
2019-01-30T04:05:08.684Z,98727.97
2019-01-30T04:07:39.863Z,98736.92
2019-01-30T04:10:14.479Z,98748.80
2019-01-30T04:12:44.743Z,98734.17
2019-01-30T04:15:16.513Z,98732.86
2019-01-30T04:17:50.431Z,98729.58
2019-01-30T04:20:22.166Z,98726.09
2019-01-30T04:22:54.025Z,98733.36
2019-01-30T04:25:27.829Z,98721.89
2019-01-30T04:27:59.216Z,98725.09
2019-01-30T04:30:33.221Z,98723.24
2019-01-30T04:33:05.409Z,98724.72
2019-01-30T04:35:37.148Z,98719.23
2019-01-30T04:38:09.597Z,98715.40
2019-01-30T04:40:41.596Z,98714.67
2019-01-30T04:43:12.666Z,98722.08
2019-01-30T04:45:45.236Z,98711.26
2019-01-30T04:48:16.996Z,98713.45
2019-01-30T04:50:49.716Z,98706.92
2019-01-30T04:53:22.531Z,98711.17
2019-01-30T04:55:55.402Z,98716.66
2019-01-30T04:58:29.723Z,98706.36
2019-01-30T05:01:04.349Z,98705.75
2019-01-30T05:03:35.227Z,98702.95
2019-01-30T05:06:07.861Z,98699.52
2019-01-30T05:08:39.350Z,98707.84
2019-01-30T05:11:12.000Z,98704.53
2019-01-30T05:13:42.975Z,98704.10
2019-01-30T05:16:14.887Z,98697.81
2019-01-30T05:18:47.478Z,98698.51
2019-01-30T05:21:23.069Z,98692.17
2019-01-30T05:23:54.430Z,98693.20
2019-01-30T05:26:28.147Z,98709.05
2019-01-30T05:29:03.466Z,98701.83
2019-01-30T05:31:42.224Z,98709.39
2019-01-30T05:34:17.834Z,98713.25
2019-01-30T05:36:51.856Z,98704.06
2019-01-30T05:39:23.037Z,98710.85
2019-01-30T05:41:55.392Z,98706.48
2019-01-30T05:44:27.719Z,98707.84
2019-01-30T05:47:00.448Z,98703.08
2019-01-30T05:49:32.083Z,98706.52
2019-01-30T05:52:03.534Z,98701.20
2019-01-30T05:54:35.916Z,98705.09
2019-01-30T05:57:09.823Z,98703.98
2019-01-30T05:59:42.210Z,98704.31
2019-01-30T06:02:15.876Z,98699.64
2019-01-30T06:04:51.804Z,98702.61
2019-01-30T06:07:23.881Z,98698.68
2019-01-30T06:09:54.144Z,98706.89
2019-01-30T06:12:25.925Z,98697.69
2019-01-30T06:14:57.445Z,98697.86
2019-01-30T06:17:29.534Z,98698.48
2019-01-30T06:20:01.783Z,98695.71
2019-01-30T06:22:32.545Z,98693.27
2019-01-30T06:25:03.416Z,98692.70
2019-01-30T06:27:34.516Z,98690.49
2019-01-30T06:30:06.589Z,98696.20
2019-01-30T06:32:39.272Z,98691.23
2019-01-30T06:35:10.618Z,98687.53
2019-01-30T06:37:43.907Z,98684.56
2019-01-30T06:40:22.109Z,98683.39
2019-01-30T06:42:53.643Z,98687.57
2019-01-30T06:45:25.644Z,98686.00
2019-01-30T06:47:59.563Z,98693.62
2019-01-30T06:50:32.667Z,98700.23
2019-01-30T06:53:05.207Z,98691.86
2019-01-30T06:55:36.557Z,98694.11
2019-01-30T06:58:08.841Z,98690.27
2019-01-30T07:00:40.499Z,98686.53
2019-01-30T07:03:12.731Z,98687.48
2019-01-30T07:05:44.829Z,98679.62
2019-01-30T07:08:17.628Z,98686.09
2019-01-30T07:10:50.737Z,98687.02
2019-01-30T07:13:27.916Z,98687.12
2019-01-30T07:15:58.993Z,98675.22
2019-01-30T07:18:34.287Z,98669.60
2019-01-30T07:21:07.135Z,98677.11
2019-01-30T07:23:38.941Z,98673.50
2019-01-30T07:26:10.304Z,98674.80
2019-01-30T07:28:41.955Z,98673.27
2019-01-30T07:31:14.378Z,98676.52
2019-01-30T07:33:45.666Z,98667.70
2019-01-30T07:36:16.852Z,98669.06
2019-01-30T07:38:50.939Z,98660.47
2019-01-30T07:41:26.051Z,98671.56
2019-01-30T07:43:57.581Z,98672.22
2019-01-30T07:46:28.831Z,98670.30
2019-01-30T07:49:00.815Z,98675.83
2019-01-30T07:51:31.224Z,98676.28
2019-01-30T07:54:03.370Z,98679.14
2019-01-30T07:56:34.399Z,98681.90
2019-01-30T07:59:09.198Z,98671.94
2019-01-30T08:01:40.444Z,98677.38
2019-01-30T08:04:15.371Z,98672.20
2019-01-30T08:06:47.107Z,98672.80
2019-01-30T08:09:19.964Z,98668.88
2019-01-30T08:11:50.212Z,98675.59
2019-01-30T08:14:21.259Z,98673.16
2019-01-30T08:16:54.693Z,98673.16
2019-01-30T08:19:27.779Z,98670.49
2019-01-30T08:21:59.415Z,98665.31
2019-01-30T08:24:34.255Z,98668.33
2019-01-30T08:27:06.387Z,98661.68
2019-01-30T08:29:38.300Z,98665.81
2019-01-30T08:32:09.381Z,98668.60
2019-01-30T08:34:41.471Z,98666.48
2019-01-30T08:37:13.340Z,98677.05
2019-01-30T08:39:44.402Z,98664.06
2019-01-30T08:42:16.965Z,98673.98
2019-01-30T08:44:48.451Z,98675.51
2019-01-30T08:47:19.579Z,98674.87
2019-01-30T08:49:51.952Z,98680.94
2019-01-30T08:52:23.153Z,98678.17
2019-01-30T08:54:54.461Z,98682.41
2019-01-30T08:57:25.105Z,98675.23
2019-01-30T08:59:57.025Z,98673.28
2019-01-30T09:02:29.050Z,98685.01
2019-01-30T09:05:01.130Z,98681.92
2019-01-30T09:07:32.136Z,98676.92
2019-01-30T09:10:03.691Z,98674.37
2019-01-30T09:12:35.143Z,98675.20
2019-01-30T09:15:07.142Z,98672.73
2019-01-30T09:17:38.045Z,98678.55
2019-01-30T09:20:15.504Z,98674.53
2019-01-30T09:22:46.447Z,98680.00
2019-01-30T09:25:18.892Z,98681.77
2019-01-30T09:27:51.745Z,98688.48
2019-01-30T09:30:28.377Z,98680.39
2019-01-30T09:33:01.289Z,98681.87
2019-01-30T09:35:34.662Z,98684.38
2019-01-30T09:38:05.482Z,98686.39
2019-01-30T09:40:36.979Z,98688.34
2019-01-30T09:43:09.842Z,98683.02
2019-01-30T09:45:41.639Z,98683.23
2019-01-30T09:48:12.996Z,98692.91
2019-01-30T09:50:44.994Z,98690.94
2019-01-30T09:53:15.794Z,98694.56
2019-01-30T09:55:47.026Z,98690.16
2019-01-30T09:58:17.598Z,98692.61
2019-01-30T10:00:49.048Z,98689.42
2019-01-30T10:03:20.781Z,98692.77
2019-01-30T10:05:53.365Z,98701.67
2019-01-30T10:08:27.361Z,98698.69
2019-01-30T10:10:59.457Z,98701.41
2019-01-30T10:13:31.383Z,98704.28
2019-01-30T10:16:02.041Z,98699.15
2019-01-30T10:18:36.877Z,98696.51
2019-01-30T10:21:13.851Z,98702.84
2019-01-30T10:23:45.976Z,98708.92
2019-01-30T10:26:18.003Z,98707.41
2019-01-30T10:28:49.026Z,98701.23
2019-01-30T10:31:20.768Z,98700.50
2019-01-30T10:33:52.303Z,98693.89
2019-01-30T10:36:23.895Z,98705.59
2019-01-30T10:38:55.041Z,98703.59
2019-01-30T10:41:25.434Z,98704.79
2019-01-30T10:43:57.110Z,98708.59
2019-01-30T10:46:28.854Z,98710.42
2019-01-30T10:48:59.935Z,98703.63
2019-01-30T10:51:31.526Z,98710.95
2019-01-30T10:54:02.131Z,98708.52
2019-01-30T10:56:33.667Z,98711.55
2019-01-30T10:59:05.875Z,98704.29
2019-01-30T11:01:37.666Z,98698.60
2019-01-30T11:04:09.833Z,98700.63
2019-01-30T11:06:43.783Z,98700.03
2019-01-30T11:09:15.228Z,98704.58
2019-01-30T11:11:45.956Z,98706.39
2019-01-30T11:14:16.549Z,98704.39
2019-01-30T11:16:48.281Z,98704.56
2019-01-30T11:19:18.522Z,98704.63
2019-01-30T11:21:49.854Z,98707.90
2019-01-30T11:24:21.096Z,98698.80
2019-01-30T11:26:52.838Z,98699.45
2019-01-30T11:29:23.924Z,98703.13
2019-01-30T11:31:55.216Z,98707.52
2019-01-30T11:34:25.519Z,98710.88
2019-01-30T11:37:00.086Z,98707.33
2019-01-30T11:39:32.047Z,98711.22
2019-01-30T11:42:02.822Z,98709.31
2019-01-30T11:44:37.431Z,98712.15
2019-01-30T11:47:09.601Z,98706.54
2019-01-30T11:49:39.890Z,98708.14
2019-01-30T11:52:11.832Z,98708.86
2019-01-30T11:54:42.971Z,98706.72
2019-01-30T11:57:15.086Z,98700.51
2019-01-30T11:59:46.085Z,98703.72
2019-01-30T12:02:16.755Z,98701.83
2019-01-30T12:04:47.084Z,98699.80
2019-01-30T12:07:19.725Z,98696.73
2019-01-30T12:09:50.263Z,98691.55
2019-01-30T12:12:20.868Z,98697.58
2019-01-30T12:14:51.220Z,98695.17
2019-01-30T12:17:24.671Z,98693.03
2019-01-30T12:19:55.511Z,98691.05
2019-01-30T12:22:27.478Z,98688.87
2019-01-30T12:24:58.683Z,98690.17
2019-01-30T12:27:30.023Z,98692.67
2019-01-30T12:30:00.914Z,98692.16
2019-01-30T12:32:31.240Z,98694.64
2019-01-30T12:35:01.888Z,98699.89
2019-01-30T12:37:33.556Z,98704.37
2019-01-30T12:40:05.635Z,98704.31
2019-01-30T12:42:43.976Z,98699.91
2019-01-30T12:45:22.286Z,98694.48
2019-01-30T12:47:53.723Z,98701.62
2019-01-30T12:50:24.984Z,98708.20
2019-01-30T12:52:56.907Z,98700.42
2019-01-30T12:55:29.584Z,98702.48
2019-01-30T12:58:01.916Z,98707.54
2019-01-30T13:00:35.637Z,98710.74
2019-01-30T13:03:08.207Z,98712.75
2019-01-30T13:05:40.028Z,98715.86
2019-01-30T13:08:14.064Z,98714.89
2019-01-30T13:10:45.044Z,98721.66
2019-01-30T13:13:16.778Z,98715.78
2019-01-30T13:15:47.778Z,98722.59
2019-01-30T13:18:20.920Z,98721.55
2019-01-30T13:20:53.178Z,98725.70
2019-01-30T13:23:25.523Z,98728.11
2019-01-30T13:25:56.494Z,98723.10
2019-01-30T13:28:29.445Z,98726.19
2019-01-30T13:31:00.851Z,98738.12
2019-01-30T13:33:32.542Z,98728.61
2019-01-30T13:36:05.708Z,98733.88
2019-01-30T13:38:38.989Z,98739.63
2019-01-30T13:41:12.951Z,98739.98
2019-01-30T13:43:46.289Z,98745.13
2019-01-30T13:46:17.949Z,98751.41
2019-01-30T13:48:49.196Z,98752.08
2019-01-30T13:51:21.756Z,98746.93
2019-01-30T13:53:53.619Z,98753.83
2019-01-30T13:56:26.079Z,98754.45
2019-01-30T13:58:56.904Z,98751.70
2019-01-30T14:01:31.304Z,98756.21
2019-01-30T14:04:02.492Z,98760.66
2019-01-30T14:06:33.897Z,98766.32
2019-01-30T14:09:07.768Z,98764.91
2019-01-30T14:11:42.077Z,98769.84
2019-01-30T14:14:13.044Z,98779.78
2019-01-30T14:16:52.333Z,98786.05
2019-01-30T14:19:24.905Z,98782.76
2019-01-30T14:21:56.101Z,98780.15
2019-01-30T14:24:28.596Z,98783.59
2019-01-30T14:26:59.931Z,98788.20
2019-01-30T14:29:32.422Z,98790.02
2019-01-30T14:32:04.365Z,98795.91
2019-01-30T14:34:34.701Z,98799.17
2019-01-30T14:37:05.975Z,98802.80
2019-01-30T14:39:37.207Z,98808.50
2019-01-30T14:42:08.291Z,98821.34
2019-01-30T14:44:39.389Z,98816.66
2019-01-30T14:47:11.371Z,98818.45
2019-01-30T14:49:42.315Z,98820.58
2019-01-30T14:52:14.036Z,98824.78
2019-01-30T14:54:46.439Z,98834.67
2019-01-30T14:57:17.155Z,98831.73
2019-01-30T14:59:49.118Z,98833.80
2019-01-30T15:02:20.857Z,98838.20
2019-01-30T15:04:53.262Z,98840.38
2019-01-30T15:07:29.078Z,98844.02
2019-01-30T15:09:58.660Z,98845.33
2019-01-30T15:12:29.822Z,98851.82
2019-01-30T15:15:02.373Z,98857.23
2019-01-30T15:17:34.524Z,98862.89
2019-01-30T15:20:08.411Z,98868.17
2019-01-30T15:22:40.483Z,98878.22
2019-01-30T15:25:14.435Z,98875.97
2019-01-30T15:27:45.119Z,98871.11
2019-01-30T15:30:20.399Z,98873.56
2019-01-30T15:32:51.823Z,98878.39
2019-01-30T15:35:33.147Z,98881.62
2019-01-30T15:37:59.026Z,98889.05
2019-01-30T15:40:30.536Z,98889.35
2019-01-30T15:43:02.075Z,98897.59
2019-01-30T15:45:34.237Z,98897.69
2019-01-30T15:48:08.439Z,98903.48
2019-01-30T15:50:41.611Z,98911.76
2019-01-30T15:53:18.987Z,98910.27
2019-01-30T15:55:51.895Z,98918.37
2019-01-30T15:58:25.012Z,98920.39
2019-01-30T16:01:00.260Z,98921.94
2019-01-30T16:03:31.740Z,98921.81
2019-01-30T16:06:03.706Z,98921.40
2019-01-30T16:08:35.610Z,98923.84
2019-01-30T16:11:07.564Z,98929.13
2019-01-30T16:13:38.745Z,98930.18
2019-01-30T16:16:10.371Z,98932.00
2019-01-30T16:18:41.270Z,98937.78
2019-01-30T16:21:13.155Z,98940.57
2019-01-30T16:23:44.795Z,98946.56
2019-01-30T16:26:17.059Z,98940.60
2019-01-30T16:28:47.836Z,98944.72
2019-01-30T16:31:18.803Z,98949.16
2019-01-30T16:33:49.427Z,98954.39
2019-01-30T16:36:19.836Z,98952.13
2019-01-30T16:38:50.201Z,98956.07
2019-01-30T16:41:22.495Z,98957.65
2019-01-30T16:43:53.476Z,98962.88
2019-01-30T16:46:24.505Z,98975.00
2019-01-30T16:48:55.339Z,98978.59
2019-01-30T16:51:27.311Z,98971.55
2019-01-30T16:53:58.031Z,98985.70
2019-01-30T16:56:30.111Z,98990.26
2019-01-30T16:59:01.403Z,98988.27
2019-01-30T17:01:33.193Z,99003.51
2019-01-30T17:04:05.312Z,99000.81
2019-01-30T17:06:35.890Z,99005.03
2019-01-30T17:09:08.960Z,99005.41
2019-01-30T17:11:41.005Z,99008.89
2019-01-30T17:14:12.444Z,99007.98
2019-01-30T17:16:44.184Z,99009.33
2019-01-30T17:19:16.046Z,99017.33
2019-01-30T17:21:48.756Z,99017.77
2019-01-30T17:24:21.019Z,99017.11
2019-01-30T17:26:53.641Z,99022.58
2019-01-30T17:29:24.642Z,99029.19
2019-01-30T17:31:56.272Z,99017.73
2019-01-30T17:34:28.915Z,99021.82
2019-01-30T17:36:59.956Z,99025.20
2019-01-30T17:39:30.759Z,99037.70
2019-01-30T17:42:02.657Z,99037.45
2019-01-30T17:44:33.669Z,99043.74
2019-01-30T17:47:05.012Z,99034.85
2019-01-30T17:49:36.638Z,99041.37
2019-01-30T17:52:08.064Z,99037.06
2019-01-30T17:54:41.208Z,99048.39
2019-01-30T17:57:12.401Z,99048.02
2019-01-30T17:59:42.990Z,99043.68
2019-01-30T18:02:14.324Z,99051.83
2019-01-30T18:04:44.624Z,99053.07
2019-01-30T18:07:14.980Z,99055.66
2019-01-30T18:09:45.689Z,99062.44
2019-01-30T18:12:19.191Z,99062.23
2019-01-30T18:14:50.168Z,99062.91
2019-01-30T18:17:22.017Z,99061.48
2019-01-30T18:19:53.495Z,99065.88
2019-01-30T18:22:27.006Z,99067.04
2019-01-30T18:24:57.929Z,99067.82
2019-01-30T18:27:30.052Z,99067.62
2019-01-30T18:30:00.689Z,99066.33
2019-01-30T18:32:32.717Z,99072.81
2019-01-30T18:35:03.849Z,99077.36
2019-01-30T18:37:34.517Z,99078.06
2019-01-30T18:40:07.868Z,99072.07
2019-01-30T18:42:41.571Z,99076.22
2019-01-30T18:45:15.852Z,99078.77
2019-01-30T18:47:47.403Z,99075.84
2019-01-30T18:50:22.580Z,99076.64
2019-01-30T18:52:53.403Z,99083.70
2019-01-30T18:55:24.564Z,99081.67
2019-01-30T18:57:57.503Z,99079.95
2019-01-30T19:00:31.362Z,99075.20
2019-01-30T19:03:05.639Z,99082.86
2019-01-30T19:05:36.638Z,99089.89
2019-01-30T19:08:08.112Z,99091.88
2019-01-30T19:10:39.759Z,99091.91
2019-01-30T19:13:11.846Z,99087.16
2019-01-30T19:15:43.523Z,99085.72
2019-01-30T19:18:18.232Z,99090.86
2019-01-30T19:20:49.928Z,99088.75
2019-01-30T19:23:20.294Z,99088.64
2019-01-30T19:25:51.936Z,99091.05
2019-01-30T19:28:24.273Z,99087.89
2019-01-30T19:30:54.542Z,99089.50
2019-01-30T19:33:24.912Z,99096.94
2019-01-30T19:35:56.098Z,99093.52
2019-01-30T19:38:26.838Z,99094.42
2019-01-30T19:40:57.882Z,99098.16
2019-01-30T19:43:29.024Z,99091.44
2019-01-30T19:46:00.134Z,99096.94
2019-01-30T19:48:32.394Z,99098.11
2019-01-30T19:51:04.267Z,99096.55
2019-01-30T19:53:36.575Z,99113.41
2019-01-30T19:56:07.644Z,99104.51
2019-01-30T19:58:41.451Z,99106.63
2019-01-30T20:01:12.268Z,99106.78
2019-01-30T20:03:44.679Z,99103.96
2019-01-30T20:06:16.887Z,99109.08
2019-01-30T20:08:49.080Z,99103.44
2019-01-30T20:11:20.539Z,99105.17
2019-01-30T20:13:52.516Z,99111.86
2019-01-30T20:16:23.803Z,99114.38
2019-01-30T20:18:55.610Z,99112.88
2019-01-30T20:21:27.203Z,99107.23
2019-01-30T20:24:03.609Z,99115.91
2019-01-30T20:26:35.351Z,99117.19
2019-01-30T20:29:07.974Z,99117.48
2019-01-30T20:31:39.177Z,99115.34
2019-01-30T20:34:10.719Z,99126.06
2019-01-30T20:36:41.650Z,99127.06
2019-01-30T20:39:14.500Z,99124.58
2019-01-30T20:41:46.238Z,99129.72
2019-01-30T20:44:18.290Z,99133.44
2019-01-30T20:46:49.528Z,99137.97
2019-01-30T20:49:24.643Z,99137.77
2019-01-30T20:51:58.857Z,99131.60
2019-01-30T20:54:31.109Z,99131.45
2019-01-30T20:57:01.420Z,99139.79
2019-01-30T20:59:33.342Z,99145.80
2019-01-30T21:02:04.321Z,99152.30
2019-01-30T21:04:35.771Z,99157.61
2019-01-30T21:07:06.368Z,99155.24
2019-01-30T21:09:37.523Z,99151.61
2019-01-30T21:12:08.145Z,99146.30
2019-01-30T21:14:39.473Z,99149.17
2019-01-30T21:17:12.193Z,99151.69
2019-01-30T21:19:43.667Z,99158.84
2019-01-30T21:22:14.632Z,99156.00
2019-01-30T21:24:45.653Z,99159.31
2019-01-30T21:27:16.513Z,99161.15
2019-01-30T21:29:51.310Z,99166.57
2019-01-30T21:32:22.527Z,99169.23
2019-01-30T21:34:56.182Z,99170.44
2019-01-30T21:37:27.935Z,99173.41
2019-01-30T21:40:00.576Z,99177.13
2019-01-30T21:42:32.795Z,99177.80
2019-01-30T21:45:04.848Z,99178.32
2019-01-30T21:47:36.745Z,99177.41
2019-01-30T21:50:09.806Z,99174.94
2019-01-30T21:52:42.957Z,99180.84
2019-01-30T21:55:19.966Z,99180.78
2019-01-30T21:57:53.198Z,99177.91
2019-01-30T22:00:26.952Z,99184.25
2019-01-30T22:02:58.047Z,99180.35
2019-01-30T22:05:29.063Z,99183.96
2019-01-30T22:08:01.356Z,99184.25
2019-01-30T22:10:32.689Z,99185.23
2019-01-30T22:13:05.372Z,99196.23
2019-01-30T22:15:37.643Z,99195.49
2019-01-30T22:18:09.132Z,99194.45
2019-01-30T22:20:40.642Z,99195.67
2019-01-30T22:23:11.246Z,99205.12
2019-01-30T22:25:42.678Z,99198.80
2019-01-30T22:28:23.655Z,99206.27
2019-01-30T22:30:59.103Z,99208.87
2019-01-30T22:33:33.076Z,99218.31
2019-01-30T22:36:04.380Z,99212.05
2019-01-30T22:38:41.804Z,99217.29
2019-01-30T22:41:13.907Z,99209.32
2019-01-30T22:43:50.546Z,99217.19
2019-01-30T22:46:24.501Z,99220.64
2019-01-30T22:48:55.882Z,99219.88
2019-01-30T22:51:28.210Z,99221.11
2019-01-30T22:54:16.097Z,99226.11
2019-01-30T22:56:52.457Z,99225.27
2019-01-30T22:59:24.025Z,99220.44
2019-01-30T23:02:05.119Z,99226.34
2019-01-30T23:05:17.174Z,99227.02
2019-01-30T23:08:22.634Z,99228.80
2019-01-30T23:11:21.580Z,99183.58
2019-01-30T23:14:07.889Z,99230.28
2019-01-30T23:17:22.438Z,99228.70
2019-01-30T23:20:22.742Z,99234.47
2019-01-30T23:23:22.000Z,99229.91
2019-01-30T23:26:26.182Z,99233.96
2019-01-30T23:29:37.876Z,99238.32
2019-01-30T23:32:31.834Z,99236.31
2019-01-30T23:35:48.411Z,99237.34
2019-01-30T23:38:56.697Z,99236.66
2019-01-30T23:41:40.201Z,99237.61
2019-01-30T23:44:50.258Z,99239.63
2019-01-30T23:48:04.121Z,99233.73
2019-01-30T23:50:57.159Z,99243.84
2019-01-30T23:54:23.827Z,99240.84
2019-01-30T23:57:36.869Z,99250.73
